Terminal Aerodrome Forecast
Issued by NWS

Home | Current Version | Previous Version | Graphics & Text | Print | Product List | Glossary On
Versions: 1 2 3 4 5 6 7 8 9 10 11 12 13 14
412
FTUS43 KMPX 041139
TAFRNH
TAF
KRNH 041139Z 0412/0512 15008KT 1SM -SN BR OVC005
      TEMPO 0412/0416 2SM -SN BR SCT005 OVC012
     FM041600 16008KT 5SM -SN BR OVC007
     FM042000 21008KT P6SM OVC008
     FM050000 24008KT P6SM OVC015
     FM050400 25006KT P6SM BKN020
     FM050900 19005KT P6SM BKN030=

USA.gov is the U.S. government's official web portal to all federal, state and local government web resources and services.